createdAt,value
2023-03-10T00:02:14.181Z,0.60
2023-03-10T00:06:28.693Z,0.53
2023-03-10T00:10:32.423Z,0.30
2023-03-10T00:14:36.116Z,0.33
2023-03-10T00:19:28.809Z,0.43
2023-03-10T00:23:58.773Z,0.40
2023-03-10T00:28:02.528Z,0.60
2023-03-10T00:32:06.738Z,0.43
2023-03-10T00:36:37.285Z,0.70
2023-03-10T00:40:43.477Z,0.70
2023-03-10T00:44:47.112Z,0.40
2023-03-10T00:48:51.289Z,0.33
2023-03-10T00:53:22.603Z,0.37
2023-03-10T00:57:28.677Z,0.40
2023-03-10T01:01:35.915Z,0.30
2023-03-10T01:05:40.133Z,0.60
2023-03-10T01:09:45.452Z,0.33
2023-03-10T01:13:51.908Z,0.30
2023-03-10T01:18:02.453Z,0.30
2023-03-10T01:22:06.270Z,0.40
2023-03-10T01:26:10.293Z,0.60
2023-03-10T01:30:44.209Z,0.63
2023-03-10T01:35:13.627Z,0.40
2023-03-10T01:39:17.714Z,0.40
2023-03-10T01:43:35.160Z,0.30
2023-03-10T01:47:40.346Z,0.30
2023-03-10T01:51:49.321Z,0.53
2023-03-10T01:55:57.059Z,0.37
2023-03-10T02:00:01.868Z,0.20
2023-03-10T02:04:35.498Z,0.30
2023-03-10T02:08:44.376Z,0.30
2023-03-10T02:12:49.542Z,0.30
2023-03-10T02:16:53.473Z,0.33
2023-03-10T02:21:32.059Z,0.40
2023-03-10T02:25:44.459Z,0.30
2023-03-10T02:30:04.292Z,0.23
2023-03-10T02:34:11.419Z,0.30
2023-03-10T02:38:16.309Z,0.20
2023-03-10T02:42:20.832Z,0.20
2023-03-10T02:46:26.148Z,0.20
2023-03-10T02:50:39.178Z,0.20
2023-03-10T02:54:42.958Z,0.30
2023-03-10T02:58:46.725Z,0.20
2023-03-10T03:02:53.165Z,0.20
2023-03-10T03:06:57.448Z,0.30
2023-03-10T03:11:09.782Z,0.60
2023-03-10T03:15:15.957Z,0.23
2023-03-10T03:19:21.331Z,0.30
2023-03-10T03:23:25.135Z,0.30
2023-03-10T03:27:31.932Z,0.30
2023-03-10T03:31:35.988Z,0.30
2023-03-10T03:35:59.888Z,0.20
2023-03-10T03:40:12.931Z,0.30
2023-03-10T03:44:19.036Z,0.30
2023-03-10T03:48:26.954Z,0.20
2023-03-10T03:52:32.340Z,0.27
2023-03-10T03:56:36.733Z,0.20
2023-03-10T04:06:34.617Z,0.20
2023-03-10T04:11:33.191Z,0.30
2023-03-10T04:15:39.970Z,0.30
2023-03-10T04:19:45.894Z,0.27
2023-03-10T04:24:10.998Z,0.20
2023-03-10T04:28:20.041Z,0.20
2023-03-10T04:32:27.970Z,0.20
2023-03-10T04:36:31.887Z,0.30
2023-03-10T04:40:38.974Z,0.20
2023-03-10T04:44:42.855Z,0.23
2023-03-10T04:48:48.520Z,0.30
2023-03-10T04:53:18.308Z,0.20
2023-03-10T04:57:24.692Z,0.20
2023-03-10T05:01:33.344Z,0.30
2023-03-10T05:05:57.088Z,0.30
2023-03-10T05:10:56.310Z,0.30
2023-03-10T05:15:05.427Z,0.30
2023-03-10T05:19:09.271Z,0.20
2023-03-10T05:23:14.792Z,0.30
2023-03-10T05:27:22.151Z,0.30
2023-03-10T05:31:27.585Z,0.30
2023-03-10T05:35:51.373Z,0.20
2023-03-10T05:39:56.941Z,0.30
2023-03-10T05:44:04.147Z,0.30
2023-03-10T05:48:10.477Z,0.27
2023-03-10T05:52:14.268Z,0.20
2023-03-10T05:56:22.482Z,0.30
2023-03-10T06:00:30.768Z,0.30
2023-03-10T06:04:37.869Z,0.20
2023-03-10T06:09:06.606Z,0.20
2023-03-10T06:14:01.955Z,0.23
2023-03-10T06:18:07.208Z,0.20
2023-03-10T06:22:11.212Z,0.30
2023-03-10T06:26:17.211Z,0.40
2023-03-10T06:30:21.217Z,0.20
2023-03-10T06:34:26.704Z,0.30
2023-03-10T06:38:30.824Z,0.30
2023-03-10T06:42:34.673Z,0.50
2023-03-10T06:46:38.447Z,0.20
2023-03-10T06:50:44.730Z,0.30
2023-03-10T06:55:01.789Z,0.30
2023-03-10T06:59:05.619Z,0.50
2023-03-10T07:03:11.769Z,0.30
2023-03-10T07:07:17.221Z,0.20
2023-03-10T07:11:20.946Z,0.40
2023-03-10T07:15:24.778Z,0.23
2023-03-10T07:19:28.592Z,0.30
2023-03-10T07:23:34.482Z,0.50
2023-03-10T07:27:38.436Z,0.23
2023-03-10T07:31:42.262Z,0.20
2023-03-10T07:36:48.726Z,0.30
2023-03-10T07:40:54.044Z,0.30
2023-03-10T07:44:57.862Z,0.30
2023-03-10T07:49:09.713Z,0.30
2023-03-10T07:53:13.394Z,0.43
2023-03-10T07:57:18.990Z,0.40
2023-03-10T08:01:23.968Z,0.50
2023-03-10T08:05:27.821Z,0.43
2023-03-10T08:09:32.105Z,0.50
2023-03-10T08:13:37.874Z,0.50
2023-03-10T08:17:41.978Z,0.40
2023-03-10T08:21:45.839Z,0.50
2023-03-10T08:25:49.646Z,0.47
2023-03-10T08:35:37.119Z,0.40
2023-03-10T08:39:41.147Z,0.30
2023-03-10T08:43:49.162Z,0.57
2023-03-10T08:47:53.315Z,0.40
2023-03-10T08:51:59.417Z,0.40
2023-03-10T08:56:33.116Z,0.50
2023-03-10T09:00:36.942Z,0.50
2023-03-10T09:04:40.771Z,0.40
2023-03-10T09:09:00.757Z,0.70
2023-03-10T09:13:13.658Z,0.50
2023-03-10T09:18:39.877Z,0.50
2023-03-10T09:22:44.144Z,0.60
2023-03-10T09:26:51.783Z,0.43
2023-03-10T09:30:55.553Z,0.80
2023-03-10T09:34:59.316Z,0.40
2023-03-10T09:39:34.716Z,0.60
2023-03-10T09:43:46.459Z,0.60
2023-03-10T09:48:12.427Z,0.47
2023-03-10T09:52:39.821Z,0.50
2023-03-10T09:56:44.195Z,0.27
2023-03-10T10:00:49.419Z,0.30
2023-03-10T10:05:23.968Z,0.40
2023-03-10T10:09:35.235Z,0.50
2023-03-10T10:13:41.762Z,0.40
2023-03-10T10:18:17.856Z,0.50
2023-03-10T10:22:28.316Z,0.30
2023-03-10T10:26:31.956Z,0.30
2023-03-10T10:30:37.824Z,0.40
2023-03-10T10:35:39.980Z,0.50
2023-03-10T10:39:45.339Z,0.33
2023-03-10T10:43:50.683Z,0.80
2023-03-10T10:47:58.516Z,0.40
2023-03-10T10:52:03.935Z,0.57
2023-03-10T10:56:24.242Z,0.40
2023-03-10T11:00:30.127Z,0.23
2023-03-10T11:05:09.704Z,0.30
2023-03-10T11:09:15.876Z,0.30
2023-03-10T11:13:31.009Z,0.87
2023-03-10T11:17:43.392Z,0.47
2023-03-10T11:21:53.094Z,0.47
2023-03-10T11:30:55.046Z,0.50
2023-03-10T11:34:58.842Z,0.50
2023-03-10T11:39:11.307Z,0.40
2023-03-10T11:43:29.166Z,0.30
2023-03-10T11:47:52.322Z,0.30
2023-03-10T11:52:00.058Z,0.30
2023-03-10T11:56:05.631Z,0.40
2023-03-10T12:00:24.639Z,0.47
2023-03-10T12:04:35.092Z,0.40
2023-03-10T12:08:39.667Z,0.30
2023-03-10T12:12:44.939Z,0.30
2023-03-10T12:16:50.188Z,0.30
2023-03-10T12:21:24.016Z,0.40
2023-03-10T12:25:50.611Z,0.20
2023-03-10T12:29:54.595Z,0.30
2023-03-10T12:34:22.619Z,0.20
2023-03-10T12:38:52.630Z,0.10
2023-03-10T12:42:56.391Z,0.20
2023-03-10T12:47:12.198Z,0.30
2023-03-10T12:51:20.782Z,0.30
2023-03-10T12:55:28.130Z,0.40
2023-03-10T12:59:46.695Z,0.30
2023-03-10T13:03:53.277Z,0.30
2023-03-10T13:08:01.018Z,0.30
2023-03-10T13:12:13.318Z,0.50
2023-03-10T13:16:22.537Z,0.40
2023-03-10T13:20:26.218Z,0.40
2023-03-10T13:25:25.525Z,0.30
2023-03-10T13:29:30.877Z,0.30
2023-03-10T13:33:42.985Z,0.30
2023-03-10T13:38:08.273Z,0.20
2023-03-10T13:42:44.207Z,0.30
2023-03-10T13:46:53.072Z,0.60
2023-03-10T13:51:32.433Z,0.27
2023-03-10T13:55:46.909Z,0.40
2023-03-10T13:59:51.628Z,0.40
2023-03-10T14:03:59.825Z,0.50
2023-03-10T14:08:04.934Z,0.33
2023-03-10T14:12:10.758Z,0.30
2023-03-10T14:16:14.643Z,0.30
2023-03-10T14:20:35.758Z,0.43
2023-03-10T14:24:39.543Z,0.30
2023-03-10T14:28:57.784Z,0.67
2023-03-10T14:33:02.777Z,0.50
2023-03-10T14:37:07.981Z,0.50
2023-03-10T14:41:16.665Z,0.30
2023-03-10T14:45:28.898Z,0.40
2023-03-10T14:49:32.613Z,0.40
2023-03-10T14:53:38.103Z,0.40
2023-03-10T14:57:42.913Z,0.40
2023-03-10T15:02:08.479Z,0.30
2023-03-10T15:06:13.981Z,0.30
2023-03-10T15:10:55.856Z,0.40
2023-03-10T15:15:01.124Z,0.63
2023-03-10T15:19:16.010Z,0.30
2023-03-10T15:23:20.432Z,0.40
2023-03-10T15:27:24.278Z,0.43
2023-03-10T15:31:54.834Z,0.50
2023-03-10T15:36:19.196Z,1.00
2023-03-10T15:40:25.197Z,1.33
2023-03-10T15:44:28.932Z,2.17
2023-03-10T15:48:38.090Z,2.07
2023-03-10T15:52:41.925Z,2.00
2023-03-10T15:56:46.483Z,1.67
2023-03-10T16:01:00.700Z,0.97
2023-03-10T16:05:07.370Z,0.70
2023-03-10T16:09:11.155Z,0.63
2023-03-10T16:13:15.161Z,0.43
2023-03-10T16:17:22.986Z,0.30
2023-03-10T16:21:28.287Z,0.20
2023-03-10T16:25:34.235Z,0.30
2023-03-10T16:29:40.359Z,0.40
2023-03-10T16:33:45.094Z,0.20
2023-03-10T16:37:50.199Z,0.30
2023-03-10T16:41:53.896Z,0.17
2023-03-10T16:46:25.786Z,0.10
2023-03-10T16:50:35.879Z,0.20
2023-03-10T16:54:41.139Z,0.20
2023-03-10T16:58:47.104Z,0.13
2023-03-10T17:02:51.140Z,0.20
2023-03-10T17:06:55.026Z,0.20
2023-03-10T17:11:57.424Z,0.20
2023-03-10T17:16:12.617Z,0.10
2023-03-10T17:20:18.604Z,0.20
2023-03-10T17:24:23.648Z,0.30
2023-03-10T17:28:28.375Z,0.20
2023-03-10T17:32:33.558Z,0.27
2023-03-10T17:36:37.332Z,0.30
2023-03-10T17:40:48.169Z,0.20
2023-03-10T17:44:51.845Z,0.10
2023-03-10T17:49:04.435Z,0.20
2023-03-10T17:53:08.044Z,0.20
2023-03-10T17:57:11.673Z,0.20
2023-03-10T18:01:20.258Z,0.20
2023-03-10T18:05:25.320Z,0.20
2023-03-10T18:09:28.976Z,0.20
2023-03-10T18:13:38.582Z,0.30
2023-03-10T18:17:42.459Z,0.20
2023-03-10T18:21:47.632Z,0.30
2023-03-10T18:25:51.695Z,0.30
2023-03-10T18:35:26.204Z,0.30
2023-03-10T18:40:01.073Z,0.23
2023-03-10T18:44:17.907Z,0.20
2023-03-10T18:48:25.555Z,0.30
2023-03-10T18:52:33.249Z,0.20
2023-03-10T18:56:38.489Z,0.20
2023-03-10T19:00:42.926Z,0.30
2023-03-10T19:04:48.171Z,0.30
2023-03-10T19:08:53.470Z,0.20
2023-03-10T19:12:59.208Z,0.20
2023-03-10T19:17:02.984Z,0.30
2023-03-10T19:21:07.636Z,0.10
2023-03-10T19:25:13.457Z,0.10
2023-03-10T19:30:11.230Z,0.00
2023-03-10T19:34:16.296Z,0.07
2023-03-10T19:38:20.010Z,0.00
2023-03-10T19:42:24.152Z,0.00
2023-03-10T19:46:27.929Z,0.00
2023-03-10T19:50:58.620Z,0.00
2023-03-10T19:55:02.312Z,0.00
2023-03-10T19:59:32.404Z,0.10
2023-03-10T20:03:36.303Z,0.00
2023-03-10T20:07:41.738Z,0.00
2023-03-10T20:11:58.916Z,0.00
2023-03-10T20:16:02.699Z,0.00
2023-03-10T20:26:42.657Z,0.00
2023-03-10T20:30:46.375Z,0.00
2023-03-10T20:35:04.732Z,0.10
2023-03-10T20:39:08.211Z,0.10
2023-03-10T20:43:13.459Z,0.10
2023-03-10T20:47:21.771Z,0.03
2023-03-10T20:51:25.348Z,0.10
2023-03-10T20:55:31.023Z,0.00
2023-03-10T20:59:51.420Z,0.10
2023-03-10T21:03:56.487Z,0.10
2023-03-10T21:08:00.224Z,0.10
2023-03-10T21:12:29.648Z,0.10
2023-03-10T21:16:38.948Z,0.10
2023-03-10T21:20:42.994Z,0.10
2023-03-10T21:24:46.704Z,0.10
2023-03-10T21:29:15.541Z,0.20
2023-03-10T21:33:23.704Z,0.20
2023-03-10T21:37:27.408Z,0.10
2023-03-10T21:41:33.201Z,0.20
2023-03-10T21:45:37.692Z,0.40
2023-03-10T21:49:42.985Z,0.30
2023-03-10T21:54:11.496Z,0.20
2023-03-10T21:58:26.188Z,0.20
2023-03-10T22:02:31.498Z,0.30
2023-03-10T22:06:36.600Z,0.20
2023-03-10T22:10:40.489Z,0.13
2023-03-10T22:14:44.430Z,0.20
2023-03-10T22:18:49.614Z,0.23
2023-03-10T22:22:57.470Z,0.20
2023-03-10T22:27:01.130Z,0.10
2023-03-10T22:31:07.400Z,0.13
2023-03-10T22:35:22.808Z,0.30
2023-03-10T22:39:28.067Z,0.30
2023-03-10T22:43:31.601Z,0.40
2023-03-10T22:47:40.993Z,0.20
2023-03-10T22:51:44.600Z,0.20
2023-03-10T22:55:51.392Z,0.27
2023-03-10T23:00:32.195Z,0.27
2023-03-10T23:04:35.956Z,0.50
2023-03-10T23:14:41.427Z,0.40
2023-03-10T23:19:36.077Z,0.40
2023-03-10T23:23:43.816Z,0.20
2023-03-10T23:27:47.443Z,1.00
2023-03-10T23:32:17.847Z,0.30
2023-03-10T23:36:33.777Z,0.40
2023-03-10T23:40:38.499Z,0.33
2023-03-10T23:44:42.298Z,0.50
2023-03-10T23:48:47.469Z,0.50
2023-03-10T23:52:51.028Z,0.40
2023-03-10T23:57:20.426Z,0.50
